Time;durP1;ratioP1;P1;durP2;ratioP2;P2;SDS_P1;SDS_P2;PMS_P1;PMS_P2;Temp;Humidity;BMP_temperature;BMP_pressure;BME280_temperature;BME280_humidity;BME280_pressure;Samples;Min_cycle;Max_cycle;Signal;HPM_P1;HPM_P2
2024/04/11 00:00:39;;;;;;;3.92;1.00;;;;;;;22.24;33.89;102731.78;4541291;26;19964;-63
2024/04/11 00:02:43;;;;;;;4.85;1.52;;;;;;;22.26;34.25;102729.03;4546948;26;20079;-63
2024/04/11 00:04:45;;;;;;;3.88;1.48;;;;;;;22.26;34.00;102731.69;4556730;25;20146;-63
2024/04/11 00:06:47;;;;;;;3.28;1.10;;;;;;;22.25;33.71;102732.66;4541167;26;19998;-62
2024/04/11 00:08:49;;;;;;;3.85;1.20;;;;;;;22.23;33.73;102735.41;4561461;26;20498;-63
2024/04/11 00:10:51;;;;;;;4.53;1.40;;;;;;;22.23;33.96;102729.19;4541405;26;20411;-62
2024/04/11 00:12:54;;;;;;;4.63;1.42;;;;;;;22.22;33.41;102722.97;4542913;26;20021;-62
2024/04/11 00:14:56;;;;;;;4.50;1.10;;;;;;;22.21;34.21;102737.31;4559864;25;19998;-63
2024/04/11 00:16:59;;;;;;;3.70;1.15;;;;;;;22.22;34.35;102725.63;4541036;26;20501;-62
2024/04/11 00:19:01;;;;;;;;;;;;;;;22.21;34.43;102720.38;4559422;26;20035;-61
2024/04/11 00:21:03;;;;;;;4.72;1.10;;;;;;;22.22;34.31;102722.97;4544850;25;19923;-62
2024/04/11 00:23:05;;;;;;;5.38;1.33;;;;;;;22.26;34.13;102726.34;4561434;25;20830;-62
2024/04/11 00:25:09;;;;;;;5.10;1.27;;;;;;;22.29;34.52;102715.47;4551315;26;20005;-62
2024/04/11 00:27:11;;;;;;;2.80;1.00;;;;;;;22.33;33.85;102711.66;4571480;25;20409;-62
2024/04/11 00:29:13;;;;;;;4.30;1.20;;;;;;;22.37;34.06;102707.88;4554452;25;20017;-63
2024/04/11 00:31:15;;;;;;;4.97;1.38;;;;;;;22.40;34.40;102717.59;4563087;26;20005;-63
2024/04/11 00:33:17;;;;;;;4.72;1.05;;;;;;;22.42;34.34;102710.31;4567971;25;20002;-63
2024/04/11 00:35:20;;;;;;;3.03;1.00;;;;;;;22.44;33.70;102712.00;4550470;26;20005;-62
2024/04/11 00:37:25;;;;;;;4.28;1.45;;;;;;;22.49;33.61;102714.41;4571398;25;20001;-63
2024/04/11 00:39:28;;;;;;;3.58;1.20;;;;;;;22.52;33.74;102705.31;4556415;25;20021;-63
2024/04/11 00:41:31;;;;;;;3.55;1.00;;;;;;;22.54;33.74;102703.44;4561929;26;20005;-63
2024/04/11 00:43:34;;;;;;;3.42;1.00;;;;;;;22.58;34.03;102705.88;4568323;25;20021;-63
2024/04/11 00:45:40;;;;;;;;;;;;;;;22.62;33.79;102711.94;4551202;25;20015;-63
2024/04/11 00:47:43;;;;;;;3.70;1.20;;;;;;;22.67;33.45;102720.56;4570458;25;20004;-62
2024/04/11 00:49:47;;;;;;;4.78;1.17;;;;;;;22.72;33.96;102723.88;4556337;25;20006;-65
2024/04/11 00:51:52;;;;;;;3.88;1.10;;;;;;;22.75;33.02;102723.72;4562942;26;20500;-63
2024/04/11 00:53:56;;;;;;;4.00;1.20;;;;;;;22.79;34.00;102719.03;4568073;25;20050;-63
2024/04/11 00:55:57;;;;;;;3.67;1.13;;;;;;;22.82;33.26;102716.19;4550208;25;20002;-64
2024/04/11 00:57:59;;;;;;;;;;;;;;;22.87;33.22;102714.13;4571732;25;20010;-63
2024/04/11 01:00:02;;;;;;;3.03;1.00;;;;;;;22.86;33.41;102712.38;4557483;25;20370;-63
2024/04/11 01:02:08;;;;;;;4.10;1.25;;;;;;;22.86;33.11;102706.16;4561542;26;20412;-64
2024/04/11 01:04:11;;;;;;;4.07;1.13;;;;;;;22.88;33.62;102709.59;4567975;25;21406;-64
2024/04/11 01:06:13;;;;;;;4.78;1.20;;;;;;;22.91;33.16;102704.94;4550149;25;20038;-63
2024/04/11 01:08:15;;;;;;;3.72;1.00;;;;;;;22.91;33.11;102709.44;4570853;25;20074;-64
2024/04/11 01:10:17;;;;;;;3.83;1.00;;;;;;;22.92;33.00;102711.19;4558601;25;20006;-64
2024/04/11 01:12:19;;;;;;;4.93;1.15;;;;;;;22.96;32.72;102718.94;4559727;26;20005;-65
2024/04/11 01:14:21;;;;;;;;;;;;;;;23.00;32.81;102726.84;4569273;26;20001;-64
2024/04/11 01:16:25;;;;;;;4.10;1.30;;;;;;;23.01;33.13;102721.38;4549398;26;19931;-60
2024/04/11 01:18:27;;;;;;;2.70;0.80;;;;;;;23.03;32.83;102726.69;4568921;26;20511;-60
2024/04/11 01:20:29;;;;;;;3.83;1.05;;;;;;;23.04;33.19;102736.44;4560886;25;20055;-60
2024/04/11 01:22:40;;;;;;;3.25;1.00;;;;;;;23.08;32.64;102735.31;4568136;25;20004;-60
2024/04/11 01:24:42;;;;;;;4.43;1.13;;;;;;;23.08;32.86;102730.81;4598186;25;20004;-59
2024/04/11 01:26:43;;;;;;;3.65;1.10;;;;;;;23.10;32.57;102731.59;4561066;25;20451;-59
2024/04/11 01:28:45;;;;;;;3.15;0.90;;;;;;;23.11;32.69;102736.00;4538957;26;20033;-60
2024/04/11 01:30:47;;;;;;;4.15;1.30;;;;;;;23.11;33.09;102735.13;4548809;26;20021;-59
2024/04/11 01:32:49;;;;;;;3.58;0.98;;;;;;;23.10;32.72;102730.75;4553643;25;20014;-58
2024/04/11 01:34:56;;;;;;;3.10;0.90;;;;;;;23.11;33.06;102730.66;4541188;26;20343;-60
2024/04/11 01:36:59;;;;;;;3.15;1.00;;;;;;;23.13;33.20;102734.09;4551047;26;20419;-60
2024/04/11 01:39:04;;;;;;;4.28;1.00;;;;;;;23.16;32.98;102729.50;4573970;25;20125;-62
2024/04/11 01:41:08;;;;;;;3.83;1.02;;;;;;;23.13;33.23;102715.28;4563054;26;20017;-60
2024/04/11 01:43:10;;;;;;;4.10;1.05;;;;;;;23.18;33.34;102711.53;4559973;26;20401;-60
2024/04/11 01:45:12;;;;;;;3.15;0.85;;;;;;;23.17;32.92;102694.53;4574029;25;20012;-58
2024/04/11 01:47:14;;;;;;;;;;;;;;;23.21;33.24;102712.22;4565833;25;20327;-60
2024/04/11 01:49:16;;;;;;;3.33;0.93;;;;;;;23.22;32.99;102711.28;4542950;26;19924;-58
2024/04/11 01:51:18;;;;;;;3.50;0.82;;;;;;;23.18;32.98;102711.53;4549037;26;20057;-60
2024/04/11 01:53:20;;;;;;;4.50;1.02;;;;;;;23.23;32.75;102707.63;4559635;26;20006;-60
2024/04/11 01:55:22;;;;;;;3.60;0.80;;;;;;;23.25;32.53;102710.22;4543084;26;20463;-61
2024/04/11 01:57:24;;;;;;;2.72;0.90;;;;;;;23.26;33.13;102709.28;4563236;26;20002;-60
2024/04/11 01:59:25;;;;;;;;;;;;;;;23.26;32.59;102712.81;4546004;26;20455;-60
2024/04/11 02:01:33;;;;;;;3.28;1.05;;;;;;;23.23;33.09;102714.81;4545657;26;20463;-60
2024/04/11 02:03:38;;;;;;;4.60;0.88;;;;;;;23.28;33.36;102712.72;4561100;25;20013;-60
2024/04/11 02:05:41;;;;;;;4.00;1.10;;;;;;;23.24;32.98;102695.06;4543277;26;20006;-59
2024/04/11 02:07:43;;;;;;;3.90;0.93;;;;;;;23.28;32.94;102707.34;4562611;26;20006;-60
2024/04/11 02:09:44;;;;;;;3.40;1.00;;;;;;;23.30;33.25;102705.44;4545521;26;20014;-59
2024/04/11 02:11:46;;;;;;;3.03;1.00;;;;;;;23.31;32.87;102704.50;4545477;26;20464;-59
2024/04/11 02:13:49;;;;;;;3.33;0.88;;;;;;;23.31;32.58;102709.00;4562955;25;20017;-60
2024/04/11 02:15:50;;;;;;;3.42;0.90;;;;;;;23.30;33.26;102702.75;4542340;26;20021;-60
2024/04/11 02:17:52;;;;;;;4.03;1.15;;;;;;;23.34;32.52;102701.63;4559355;26;20017;-60
2024/04/11 02:19:54;;;;;;;4.57;1.10;;;;;;;23.34;32.46;102695.41;4546485;26;20017;-60
2024/04/11 02:21:56;;;;;;;;;;;;;;;23.36;32.94;102696.19;4548241;25;20005;-60
2024/04/11 02:23:57;;;;;;;4.47;1.13;;;;;;;23.31;33.12;102693.75;4567033;25;19924;-59
2024/04/11 02:25:59;;;;;;;3.97;1.17;;;;;;;23.36;33.21;102682.75;4543014;26;20006;-59
2024/04/11 02:28:01;;;;;;;3.70;0.90;;;;;;;23.36;32.85;102678.25;4556619;26;20009;-60
2024/04/11 02:30:03;;;;;;;;;;;;;;;23.36;32.99;102683.59;4549615;26;20008;-59
2024/04/11 02:32:05;;;;;;;3.53;0.90;;;;;;;23.32;33.00;102681.19;4544799;26;20361;-59
2024/04/11 02:34:06;;;;;;;;;;;;;;;23.35;33.19;102689.06;4563867;26;20063;-59
2024/04/11 02:36:08;;;;;;;4.45;1.13;;;;;;;23.35;32.79;102697.97;4542793;26;19931;-59
2024/04/11 02:38:10;;;;;;;4.20;0.95;;;;;;;23.38;33.27;102694.25;4553198;26;20046;-60
2024/04/11 02:40:12;;;;;;;;;;;;;;;23.39;33.03;102694.19;4553046;26;20475;-60
2024/04/11 02:42:14;;;;;;;3.15;0.95;;;;;;;23.38;33.05;102691.56;4543477;26;19992;-59
2024/04/11 02:44:18;;;;;;;;;;;;;;;23.40;32.56;102695.03;4564298;25;20001;-59
2024/04/11 02:46:20;;;;;;;5.03;0.93;;;;;;;23.40;32.37;102698.59;4542121;26;19931;-60
2024/04/11 02:48:22;;;;;;;3.00;0.80;;;;;;;23.40;33.19;102701.28;4551086;26;20368;-60
2024/04/11 02:50:25;;;;;;;3.50;1.00;;;;;;;23.41;33.03;102708.38;4555789;25;20002;-59
2024/04/11 02:52:28;;;;;;;4.05;0.98;;;;;;;23.44;32.75;102716.25;4542632;26;20013;-60
2024/04/11 02:54:30;;;;;;;3.63;1.00;;;;;;;23.44;32.73;102712.72;4564895;26;20006;-59
2024/04/11 02:56:32;;;;;;;4.30;1.05;;;;;;;23.38;32.73;102711.25;4542461;26;20128;-60
2024/04/11 02:58:37;;;;;;;3.35;1.00;;;;;;;23.44;32.73;102718.09;4548239;26;20066;-60
2024/04/11 03:00:40;;;;;;;3.67;1.08;;;;;;;23.45;33.12;102717.09;4557682;25;20006;-60
2024/04/11 03:02:42;;;;;;;2.35;0.70;;;;;;;23.44;33.37;102699.28;4542435;26;20013;-60
2024/04/11 03:04:47;;;;;;;4.15;1.27;;;;;;;23.44;33.19;102694.78;4563475;26;20034;-60
2024/04/11 03:06:49;;;;;;;2.33;0.77;;;;;;;23.51;32.85;102703.31;4542179;25;20002;-60
2024/04/11 03:08:58;;;;;;;2.95;0.70;;;;;;;23.44;33.25;102688.56;4547515;26;20014;-61
2024/04/11 03:11:03;;;;;;;2.83;0.80;;;;;;;23.53;32.60;102687.13;4557137;26;20003;-61
2024/04/11 03:13:05;;;;;;;2.67;0.73;;;;;;;23.54;33.09;102694.25;4542248;26;20006;-60
2024/04/11 03:15:09;;;;;;;3.97;0.80;;;;;;;23.51;32.64;102697.94;4564089;26;20001;-59
2024/04/11 03:17:11;;;;;;;3.45;0.98;;;;;;;23.51;33.40;102697.94;4542057;26;20030;-59
2024/04/11 03:19:13;;;;;;;2.80;0.77;;;;;;;23.52;33.13;102688.09;4547765;26;20006;-60
2024/04/11 03:21:14;;;;;;;;;;;;;;;23.52;32.86;102688.94;4559432;25;20002;-60
2024/04/11 03:23:16;;;;;;;3.38;0.90;;;;;;;23.41;32.98;102669.91;4585628;25;19927;-60
2024/04/11 03:25:19;;;;;;;3.45;0.88;;;;;;;23.48;33.38;102686.53;4567513;25;20451;-59
2024/04/11 03:27:20;;;;;;;3.38;0.82;;;;;;;23.49;32.77;102686.44;4543994;25;20013;-60
2024/04/11 03:29:22;;;;;;;3.17;0.85;;;;;;;23.43;32.85;102676.06;4544663;26;19998;-60
2024/04/11 03:31:24;;;;;;;3.60;0.90;;;;;;;23.51;32.80;102691.72;4561144;25;20002;-60
2024/04/11 03:33:26;;;;;;;3.25;0.80;;;;;;;23.51;33.61;102691.72;4542200;26;20002;-59
2024/04/11 03:35:32;;;;;;;3.20;1.00;;;;;;;23.46;33.46;102678.56;4558901;26;20009;-59
2024/04/11 03:37:34;;;;;;;4.25;0.80;;;;;;;23.52;33.27;102680.03;4544643;26;20021;-59
2024/04/11 03:39:36;;;;;;;3.08;0.80;;;;;;;23.56;33.02;102686.94;4544012;26;20006;-58
2024/04/11 03:41:41;;;;;;;3.35;0.90;;;;;;;23.57;33.65;102686.88;4561983;26;20017;-59
2024/04/11 03:43:43;;;;;;;4.63;0.90;;;;;;;23.56;32.91;102682.44;4541838;26;20003;-59
2024/04/11 03:45:44;;;;;;;;;;;;;;;23.57;32.90;102678.81;4558185;26;20462;-60
2024/04/11 03:47:46;;;;;;;4.38;0.98;;;;;;;23.56;33.68;102674.38;4548176;26;19924;-60
2024/04/11 03:49:51;;;;;;;;;;;;;;;23.55;33.75;102663.72;4544490;26;20002;-59
2024/04/11 03:51:53;;;;;;;2.88;0.68;;;;;;;23.51;33.05;102672.91;4562425;26;20377;-60
2024/04/11 03:53:58;;;;;;;;;;;;;;;23.51;33.55;102681.81;4542359;26;20459;-60
2024/04/11 03:56:00;;;;;;;3.65;0.90;;;;;;;23.50;33.86;102676.56;4555862;26;19924;-60
2024/04/11 03:58:01;;;;;;;2.67;0.77;;;;;;;23.53;33.57;102679.06;4547960;26;20002;-60
2024/04/11 04:00:07;;;;;;;2.90;0.95;;;;;;;23.55;33.82;102675.34;4543952;26;20356;-60
2024/04/11 04:02:09;;;;;;;2.75;0.90;;;;;;;23.55;33.88;102669.97;4560029;26;20010;-60
2024/04/11 04:04:13;;;;;;;2.38;0.70;;;;;;;23.54;33.87;102675.44;4541440;26;20002;-60
2024/04/11 04:06:16;;;;;;;2.33;0.75;;;;;;;23.56;32.99;102684.25;4554565;26;20482;-60
2024/04/11 04:08:18;;;;;;;3.40;0.82;;;;;;;23.58;33.41;102690.41;4550512;25;20006;-60
2024/04/11 04:10:23;;;;;;;3.50;0.73;;;;;;;23.57;33.75;102691.34;4543853;26;20070;-60
2024/04/11 04:12:26;;;;;;;3.50;0.82;;;;;;;23.57;33.27;102683.28;4561475;26;20021;-60
2024/04/11 04:14:28;;;;;;;2.47;0.60;;;;;;;23.57;33.23;102692.22;4541299;26;20333;-60
2024/04/11 04:16:32;;;;;;;3.70;1.00;;;;;;;23.57;33.62;102700.28;4553502;26;20070;-60
2024/04/11 04:18:36;;;;;;;2.75;0.80;;;;;;;23.57;33.25;102704.78;4551693;25;20359;-60
2024/04/11 04:20:44;;;;;;;2.88;0.70;;;;;;;23.53;33.43;102701.41;4543557;26;20002;-61
2024/04/11 04:22:46;;;;;;;3.13;1.00;;;;;;;23.57;33.96;102704.78;4575921;25;20020;-60
2024/04/11 04:24:49;;;;;;;3.00;0.70;;;;;;;23.58;33.86;102707.38;4572037;26;20068;-60
2024/04/11 04:26:51;;;;;;;3.13;0.82;;;;;;;23.58;33.09;102698.47;4559193;25;20006;-62
2024/04/11 04:28:53;;;;;;;3.42;0.90;;;;;;;23.58;33.49;102698.47;4561298;26;20459;-60
2024/04/11 04:31:23;;;;;;;2.33;0.70;;;;;;;23.62;33.13;102700.00;4567777;26;20002;-60
2024/04/11 04:33:27;;;;;;;3.15;0.70;;;;;;;23.59;33.45;102705.56;4551035;26;20001;-59
2024/04/11 04:35:29;;;;;;;2.88;0.90;;;;;;;23.60;33.40;102702.78;4571860;25;20008;-60
2024/04/11 04:37:31;;;;;;;;;;;;;;;23.63;34.11;102690.13;4554975;25;20013;-60
2024/04/11 04:39:41;;;;;;;3.35;0.85;;;;;;;23.61;33.49;102685.72;4565610;26;19931;-59
2024/04/11 04:41:44;;;;;;;3.47;0.60;;;;;;;23.61;33.78;102683.03;4568923;25;19997;-59
2024/04/11 04:43:56;;;;;;;3.47;1.00;;;;;;;23.63;33.44;102684.75;4551147;26;20001;-59
2024/04/11 04:45:57;;;;;;;4.32;0.73;;;;;;;23.61;34.22;102690.22;4571675;25;20005;-60
2024/04/11 04:47:59;;;;;;;3.95;0.80;;;;;;;23.60;34.12;102701.94;4552309;26;20002;-59
2024/04/11 04:50:06;;;;;;;2.47;0.70;;;;;;;23.59;34.08;102705.56;4568288;26;20527;-60
2024/04/11 04:52:08;;;;;;;3.78;0.73;;;;;;;23.58;33.81;102706.50;4567966;25;20002;-60
2024/04/11 04:54:10;;;;;;;;;;;;;;;23.56;34.30;102703.94;4551628;26;20001;-60
2024/04/11 04:56:13;;;;;;;1.95;0.60;;;;;;;23.56;33.83;102703.94;4571546;25;19930;-59
2024/04/11 04:58:15;;;;;;;3.15;0.80;;;;;;;23.57;34.16;102700.28;4553310;26;20343;-59
2024/04/11 05:00:17;;;;;;;2.72;0.68;;;;;;;23.58;33.79;102703.81;4564319;26;20025;-60
2024/04/11 05:02:24;;;;;;;2.10;0.68;;;;;;;23.45;34.11;102691.13;4568626;25;20016;-60
2024/04/11 05:04:29;;;;;;;3.40;0.80;;;;;;;23.61;34.01;102715.25;4550590;25;20008;-60
2024/04/11 05:06:32;;;;;;;3.78;0.95;;;;;;;23.61;33.90;102723.31;4571346;25;20001;-60
2024/04/11 05:08:34;;;;;;;3.22;0.95;;;;;;;23.66;34.03;102719.47;4553865;25;20002;-60
2024/04/11 05:10:40;;;;;;;3.00;0.70;;;;;;;23.63;34.17;102717.84;4568461;26;20025;-60
2024/04/11 05:12:49;;;;;;;2.33;0.60;;;;;;;23.66;34.11;102724.84;4569962;26;20064;-60
2024/04/11 05:14:52;;;;;;;3.70;0.70;;;;;;;23.62;34.34;102721.47;4554813;26;20127;-59
2024/04/11 05:16:55;;;;;;;2.03;0.50;;;;;;;23.65;34.06;102725.84;4572277;26;20077;-60
2024/04/11 05:18:58;;;;;;;3.10;0.70;;;;;;;23.63;33.99;102719.69;4556032;25;20041;-60
2024/04/11 05:21:01;;;;;;;3.03;0.60;;;;;;;23.54;34.17;102705.84;4569390;26;20013;-59
2024/04/11 05:23:07;;;;;;;2.45;0.60;;;;;;;23.60;34.42;102715.34;4577251;25;20339;-60
2024/04/11 05:25:10;;;;;;;3.30;0.77;;;;;;;23.61;33.64;102704.50;4553589;26;20017;-59
2024/04/11 05:27:12;;;;;;;3.75;0.70;;;;;;;23.63;34.02;102707.09;4572781;26;20010;-60
2024/04/11 05:29:15;;;;;;;3.55;0.90;;;;;;;23.64;33.65;102706.16;4556866;25;20006;-59
2024/04/11 05:31:26;;;;;;;3.25;0.88;;;;;;;23.63;34.28;102704.41;4568183;26;20081;-60
2024/04/11 05:33:30;;;;;;;3.40;0.88;;;;;;;23.61;34.49;102701.81;4570930;25;20041;-59
2024/04/11 05:35:36;;;;;;;3.00;0.80;;;;;;;23.66;34.15;102712.31;4553019;26;20002;-60
2024/04/11 05:37:39;;;;;;;3.40;0.70;;;;;;;23.67;33.78;102714.03;4573548;25;20005;-60
2024/04/11 05:39:41;;;;;;;3.53;0.90;;;;;;;23.67;33.56;102718.53;4555328;25;20055;-60
2024/04/11 05:41:45;;;;;;;3.13;0.70;;;;;;;23.67;34.56;102721.22;4569379;26;20021;-60
2024/04/11 05:43:49;;;;;;;2.97;0.70;;;;;;;23.64;34.36;102713.34;4570993;25;20017;-59
2024/04/11 05:45:51;;;;;;;5.13;0.82;;;;;;;23.63;33.63;102712.47;4553727;26;20400;-59
2024/04/11 05:47:53;;;;;;;;;;;;;;;23.66;34.50;102724.84;4574425;25;20487;-60
2024/04/11 05:49:55;;;;;;;3.20;0.70;;;;;;;23.62;33.88;102721.47;4557059;25;19923;-60
2024/04/11 05:51:56;;;;;;;;;;;;;;;23.61;34.01;102731.38;4567928;26;20002;-60
2024/04/11 05:53:58;;;;;;;3.03;0.80;;;;;;;23.61;34.42;102730.53;4570697;26;20407;-60
2024/04/11 05:56:01;;;;;;;3.67;0.77;;;;;;;23.62;34.18;102737.59;4552908;25;20077;-60
2024/04/11 05:58:03;;;;;;;5.13;0.75;;;;;;;23.66;33.80;102749.03;4573712;25;19998;-59
2024/04/11 06:00:08;;;;;;;3.00;0.80;;;;;;;23.66;34.47;102747.22;4559198;26;20028;-59
2024/04/11 06:02:13;;;;;;;2.78;0.77;;;;;;;23.66;34.20;102738.28;4565718;26;20002;-59
2024/04/11 06:04:16;;;;;;;2.47;0.57;;;;;;;23.67;34.40;102742.69;4570592;25;20010;-59
2024/04/11 06:06:21;;;;;;;2.60;0.80;;;;;;;23.71;34.78;102763.94;4553071;25;20017;-59
2024/04/11 06:08:23;;;;;;;4.93;0.90;;;;;;;23.64;34.25;102756.34;4573278;25;20046;-58
2024/04/11 06:10:25;;;;;;;2.70;0.68;;;;;;;23.72;33.97;102768.34;4559196;25;20371;-59
2024/04/11 06:12:27;;;;;;;3.78;0.70;;;;;;;23.70;33.89;102770.25;4564636;26;20008;-59
2024/04/11 06:14:28;;;;;;;;;;;;;;;23.71;34.62;102772.00;4571164;25;20002;-59
2024/04/11 06:16:30;;;;;;;3.13;0.80;;;;;;;23.68;34.68;102769.50;4552720;26;20393;-59
2024/04/11 06:18:35;;;;;;;1.77;0.55;;;;;;;23.69;34.34;102770.34;4573215;26;20001;-59
2024/04/11 06:20:38;;;;;;;3.08;0.85;;;;;;;23.66;34.14;102783.94;4560118;25;20002;-59
2024/04/11 06:22:42;;;;;;;3.80;1.00;;;;;;;23.68;34.41;102785.63;4575301;25;20015;-59
2024/04/11 06:24:44;;;;;;;3.10;0.82;;;;;;;23.71;34.69;102789.94;4600200;25;20092;-58
2024/04/11 06:26:46;;;;;;;;;;;;;;;23.71;34.76;102771.13;4563906;26;19997;-59
2024/04/11 06:28:49;;;;;;;3.10;0.90;;;;;;;23.57;34.94;102764.75;4543048;26;19931;-59
2024/04/11 06:30:51;;;;;;;3.30;0.70;;;;;;;23.71;34.01;102788.09;4552378;26;20451;-59
2024/04/11 06:32:57;;;;;;;;;;;;;;;23.73;34.78;102778.16;4555899;26;20006;-59
2024/04/11 06:34:59;;;;;;;3.70;0.85;;;;;;;23.71;33.88;102774.66;4543787;26;19927;-59
2024/04/11 06:37:01;;;;;;;3.30;0.77;;;;;;;23.73;34.51;102780.84;4563738;25;20085;-58
2024/04/11 06:39:09;;;;;;;;;;;;;;;23.73;34.61;102790.69;4543261;26;20010;-58
2024/04/11 06:41:18;;;;;;;3.00;0.70;;;;;;;23.71;34.86;102784.56;4552087;26;20269;-60
2024/04/11 06:43:25;;;;;;;3.50;0.82;;;;;;;23.70;34.55;102789.06;4553365;25;20002;-59
2024/04/11 06:45:27;;;;;;;3.33;0.90;;;;;;;23.72;34.46;102791.66;4545099;26;20077;-60
2024/04/11 06:47:29;;;;;;;2.95;0.70;;;;;;;23.71;34.62;102787.25;4562707;26;20451;-59
2024/04/11 06:49:39;;;;;;;4.43;0.90;;;;;;;23.70;34.79;102767.56;4542719;26;20002;-60
2024/04/11 06:51:41;;;;;;;;;;;;;;;23.73;34.01;102772.78;4554236;26;20021;-60
2024/04/11 06:53:46;;;;;;;2.67;0.77;;;;;;;23.72;34.05;102771.03;4553105;26;19935;-60
2024/04/11 06:55:49;;;;;;;3.53;0.90;;;;;;;23.72;34.37;102765.66;4544714;26;20002;-59
2024/04/11 06:57:52;;;;;;;3.97;1.00;;;;;;;23.51;34.83;102729.31;4562801;26;19997;-60
2024/04/11 06:59:54;;;;;;;4.05;0.70;;;;;;;23.78;34.33;102775.19;4542518;26;20002;-60
2024/04/11 07:01:58;;;;;;;;;;;;;;;23.77;34.52;102771.63;4553148;26;20042;-60
2024/04/11 07:04:03;;;;;;;3.75;0.80;;;;;;;23.76;34.42;102769.88;4553785;25;19924;-59
2024/04/11 07:08:33;;;;;;;3.13;0.77;;;;;;;23.75;34.30;102752.03;4562855;26;20017;-59
2024/04/11 07:10:36;;;;;;;2.58;0.65;;;;;;;23.81;34.66;102758.03;4542141;26;20180;-58
2024/04/11 07:12:41;;;;;;;2.78;0.70;;;;;;;23.75;34.43;102756.56;4558194;26;20458;-59
2024/04/11 07:14:42;;;;;;;2.47;0.80;;;;;;;23.69;34.59;102768.50;4548060;25;20083;-60
2024/04/11 07:16:52;;;;;;;2.63;0.70;;;;;;;23.64;34.90;102775.13;4544507;26;20005;-60
2024/04/11 07:18:57;;;;;;;4.13;0.90;;;;;;;23.59;34.40;102776.25;4562907;26;20013;-60
2024/04/11 07:21:02;;;;;;;3.47;0.68;;;;;;;23.54;34.55;102764.91;4541682;26;20002;-60
2024/04/11 07:23:04;;;;;;;3.05;1.02;;;;;;;23.56;34.61;102779.13;4567184;25;20025;-61
2024/04/11 07:25:07;;;;;;;2.83;0.85;;;;;;;23.57;35.03;102774.63;4547141;25;20017;-61
2024/04/11 07:27:11;;;;;;;2.63;1.13;;;;;;;23.58;35.20;102782.56;4544335;26;20025;-60
2024/04/11 07:29:15;;;;;;;3.28;0.80;;;;;;;23.59;34.98;102788.84;4562424;26;20002;-60
2024/04/11 07:31:17;;;;;;;4.43;0.90;;;;;;;23.58;35.14;102787.09;4541934;26;20002;-59
2024/04/11 07:33:19;;;;;;;3.47;0.85;;;;;;;23.60;35.08;102788.72;4556132;26;20025;-60
2024/04/11 07:35:26;;;;;;;3.72;0.90;;;;;;;23.63;34.39;102792.22;4548015;25;20054;-59
2024/04/11 07:37:29;;;;;;;3.78;1.00;;;;;;;23.63;35.06;102798.44;4544154;26;20419;-60
2024/04/11 07:39:32;;;;;;;3.80;1.02;;;;;;;23.62;34.79;102807.44;4562493;26;20046;-61
2024/04/11 07:41:46;;;;;;;4.30;1.00;;;;;;;23.67;35.30;102812.56;4541754;26;20086;-59
2024/04/11 07:43:59;;;;;;;4.32;0.90;;;;;;;23.65;34.63;102809.09;4560060;26;20001;-59
2024/04/11 07:46:04;;;;;;;2.67;0.85;;;;;;;23.64;35.26;102807.38;4543291;25;20448;-60
2024/04/11 07:48:08;;;;;;;3.90;1.02;;;;;;;23.66;35.02;102817.06;4546245;26;20021;-60
2024/04/11 07:50:14;;;;;;;3.88;1.10;;;;;;;23.68;34.53;102822.34;4556491;26;20002;-60
2024/04/11 07:52:16;;;;;;;3.22;0.70;;;;;;;23.70;35.44;102817.75;4539980;26;20484;-60
2024/04/11 07:54:18;;;;;;;2.65;0.70;;;;;;;23.71;34.92;102814.13;4562140;26;20021;-60
2024/04/11 07:56:35;;;;;;;3.80;1.00;;;;;;;23.71;34.61;102814.13;4540211;26;20006;-59
2024/04/11 07:58:38;;;;;;;3.33;0.80;;;;;;;23.75;35.40;102808.44;4548983;26;20511;-59
2024/04/11 08:00:47;;;;;;;2.97;0.70;;;;;;;23.79;34.72;102816.34;4556610;26;20014;-58
2024/04/11 08:02:49;;;;;;;2.83;0.95;;;;;;;23.79;34.42;102819.03;4541611;26;20013;-60
2024/04/11 08:04:52;;;;;;;;;;;;;;;23.77;35.05;102819.97;4565053;26;20483;-60
2024/04/11 08:06:54;;;;;;;3.35;0.90;;;;;;;23.72;35.39;102822.09;4539696;26;19933;-60
2024/04/11 08:08:57;;;;;;;2.10;0.70;;;;;;;23.76;35.20;102826.31;4548538;26;20389;-61
2024/04/11 08:11:02;;;;;;;2.63;0.80;;;;;;;23.76;34.80;102834.38;4556857;25;20042;-59
2024/04/11 08:13:05;;;;;;;4.13;0.77;;;;;;;23.79;34.76;102845.91;4541532;26;20003;-59
2024/04/11 08:15:09;;;;;;;4.32;1.13;;;;;;;23.73;34.75;102836.38;4564213;26;20005;-59
2024/04/11 08:17:13;;;;;;;2.75;0.80;;;;;;;23.82;35.25;102851.97;4539612;26;20047;-59
2024/04/11 08:19:17;;;;;;;3.60;1.00;;;;;;;23.83;34.77;102864.44;4548424;26;19998;-58
2024/04/11 08:21:20;;;;;;;4.25;1.00;;;;;;;23.82;35.05;102851.97;4556718;25;20082;-60
2024/04/11 08:23:24;;;;;;;3.40;1.00;;;;;;;23.88;34.81;102856.13;4588717;25;20041;-60
2024/04/11 08:25:25;;;;;;;2.92;0.90;;;;;;;23.87;35.30;102852.56;4564623;25;20016;-59
2024/04/11 08:27:27;;;;;;;3.92;1.17;;;;;;;23.88;34.82;102854.28;4542152;25;20017;-59
2024/04/11 08:29:29;;;;;;;3.15;0.80;;;;;;;23.89;34.97;102857.84;4546202;26;20030;-60
2024/04/11 08:31:32;;;;;;;;;;;;;;;23.89;35.45;102861.41;4559669;25;20002;-60
2024/04/11 08:33:35;;;;;;;2.38;1.00;;;;;;;23.87;34.49;102862.44;4539464;26;19932;-59
2024/04/11 08:35:36;;;;;;;3.08;0.88;;;;;;;23.83;34.47;102850.13;4559011;26;20031;-60
2024/04/11 08:37:38;;;;;;;;;;;;;;;23.90;34.93;102857.75;4545158;25;20014;-60
2024/04/11 08:39:40;;;;;;;4.10;1.30;;;;;;;23.90;34.84;102863.13;4543528;26;20357;-60
2024/04/11 08:41:42;;;;;;;3.90;1.20;;;;;;;23.86;34.85;102856.19;4551446;26;20001;-59
2024/04/11 08:43:45;;;;;;;3.58;1.05;;;;;;;23.90;34.72;102863.13;4570916;25;20005;-60
2024/04/11 08:45:47;;;;;;;4.40;0.93;;;;;;;23.90;35.45;102860.44;4554540;25;20040;-60
2024/04/11 08:47:48;;;;;;;4.45;1.17;;;;;;;23.94;35.28;102858.50;4565229;26;20002;-60
2024/04/11 08:49:52;;;;;;;2.92;0.90;;;;;;;23.94;35.07;102850.44;4568679;26;20017;-59
2024/04/11 08:51:57;;;;;;;3.83;1.10;;;;;;;23.98;34.87;102856.47;4550560;26;20013;-60
2024/04/11 08:54:03;;;;;;;4.35;1.10;;;;;;;23.94;34.69;102847.72;4571366;25;20319;-60
2024/04/11 08:56:11;;;;;;;3.85;1.05;;;;;;;23.97;35.21;102852.91;4554961;25;20455;-60
2024/04/11 08:58:13;;;;;;;4.07;1.00;;;;;;;23.98;34.90;102868.09;4566396;26;20001;-58
2024/04/11 09:00:21;;;;;;;;;;;;;;;23.99;34.50;102861.75;4569082;25;20021;-59
2024/04/11 09:02:23;;;;;;;4.28;0.93;;;;;;;23.96;34.50;102856.56;4550631;26;19930;-59
2024/04/11 09:04:25;;;;;;;5.35;1.20;;;;;;;23.98;34.56;102856.47;4569399;26;20001;-60
2024/04/11 09:06:28;;;;;;;2.85;0.90;;;;;;;24.01;35.18;102867.91;4559647;25;19994;-60
2024/04/11 09:08:30;;;;;;;3.67;0.90;;;;;;;24.03;35.31;102871.38;4568161;26;20431;-59
2024/04/11 09:10:32;;;;;;;4.50;1.08;;;;;;;24.06;35.50;102859.59;4567184;25;20002;-60
2024/04/11 09:12:34;;;;;;;;;;;;;;;24.03;34.78;102860.63;4563411;25;20474;-59
2024/04/11 09:14:37;;;;;;;4.68;1.20;;;;;;;24.03;35.54;102871.38;4569671;26;19931;-60
2024/04/11 09:16:38;;;;;;;7.25;1.10;;;;;;;24.06;35.42;102873.03;4554861;25;20408;-60
2024/04/11 09:18:40;;;;;;;4.82;1.30;;;;;;;24.09;35.61;102868.31;4561617;26;20005;-60
2024/04/11 09:20:42;;;;;;;;;;;;;;;24.11;35.71;102867.34;4567901;25;20013;-59
2024/04/11 09:22:50;;;;;;;7.05;1.38;;;;;;;24.12;35.86;102861.03;4573880;25;19938;-60
2024/04/11 09:24:58;;;;;;;6.13;1.50;;;;;;;24.11;35.73;102868.25;4570114;25;20012;-60
2024/04/11 09:27:04;;;;;;;;;;;;;;;24.14;35.87;102878.78;4555854;25;20002;-60
2024/04/11 09:29:06;;;;;;;5.30;1.38;;;;;;;24.14;35.18;102883.31;4562454;26;19987;-60
2024/04/11 09:31:09;;;;;;;6.80;1.30;;;;;;;24.19;35.69;102883.91;4566366;25;20014;-61
2024/04/11 09:33:16;;;;;;;6.68;1.55;;;;;;;24.18;35.79;102887.53;4562760;25;20075;-60
2024/04/11 09:35:20;;;;;;;5.38;1.30;;;;;;;24.22;35.99;102884.59;4539265;26;20002;-60
2024/04/11 09:37:26;;;;;;;6.88;1.38;;;;;;;24.21;35.60;102890.91;4548106;26;20004;-60
2024/04/11 09:39:45;;;;;;;4.28;1.20;;;;;;;24.20;35.90;102883.81;4567164;26;20523;-60
2024/04/11 09:41:51;;;;;;;7.45;1.48;;;;;;;24.21;35.93;102884.69;4561722;25;20013;-60